createdAt,value
2019-04-01T00:01:26.106Z,99718.25
2019-04-01T00:03:55.665Z,99715.23
2019-04-01T00:06:25.368Z,99710.52
2019-04-01T00:08:55.077Z,99707.16
2019-04-01T00:11:24.790Z,99713.44
2019-04-01T00:13:54.352Z,99706.59
2019-04-01T00:16:23.893Z,99706.41
2019-04-01T00:19:02.991Z,99702.05
2019-04-01T00:21:24.863Z,99697.75
2019-04-01T00:23:54.400Z,99706.05
2019-04-01T00:26:23.950Z,99698.69
2019-04-01T00:28:53.506Z,99698.00
2019-04-01T00:31:23.072Z,99695.02
2019-04-01T00:33:52.606Z,99694.97
2019-04-01T00:36:22.152Z,99702.28
2019-04-01T00:38:51.709Z,99700.73
2019-04-01T00:41:21.241Z,99703.55
2019-04-01T00:43:54.891Z,99701.14
2019-04-01T00:46:24.813Z,99705.11
2019-04-01T00:48:54.374Z,99697.41
2019-04-01T00:51:23.913Z,99700.05
2019-04-01T00:53:53.440Z,99698.52
2019-04-01T00:56:23.007Z,99697.45
2019-04-01T00:58:52.578Z,99694.88
2019-04-01T01:01:22.123Z,99694.17
2019-04-01T01:03:51.649Z,99695.48
2019-04-01T01:06:21.190Z,99689.11
2019-04-01T01:08:50.760Z,99698.73
2019-04-01T01:11:20.325Z,99693.87
2019-04-01T01:13:49.853Z,99697.98
2019-04-01T01:16:19.400Z,99695.95
2019-04-01T01:18:48.972Z,99699.25
2019-04-01T01:21:18.531Z,99698.35
2019-04-01T01:23:48.074Z,99702.31
2019-04-01T01:26:17.752Z,99705.77
2019-04-01T01:28:47.299Z,99702.75
2019-04-01T01:31:16.830Z,99705.66
2019-04-01T01:33:46.379Z,99703.28
2019-04-01T01:36:15.941Z,99708.44
2019-04-01T01:38:45.491Z,99710.89
2019-04-01T01:41:15.045Z,99709.70
2019-04-01T01:43:44.605Z,99715.17
2019-04-01T01:46:14.169Z,99716.82
2019-04-01T01:48:43.728Z,99725.45
2019-04-01T01:51:13.293Z,99728.81
2019-04-01T01:53:42.841Z,99726.78
2019-04-01T01:56:12.394Z,99728.04
2019-04-01T01:58:42.044Z,99728.04
2019-04-01T02:01:11.582Z,99728.18
2019-04-01T02:03:41.146Z,99735.99
2019-04-01T02:06:10.708Z,99733.75
2019-04-01T02:08:40.256Z,99736.20
2019-04-01T02:11:09.800Z,99734.03
2019-04-01T02:13:39.369Z,99731.89
2019-04-01T02:16:08.897Z,99734.55
2019-04-01T02:18:38.541Z,99734.83
2019-04-01T02:21:08.093Z,99741.77
2019-04-01T02:23:37.645Z,99744.08
2019-04-01T02:26:07.187Z,99746.39
2019-04-01T02:28:36.779Z,99747.47
2019-04-01T02:31:06.389Z,99748.58
2019-04-01T02:33:35.966Z,99749.25
2019-04-01T02:36:05.501Z,99750.36
2019-04-01T02:38:35.037Z,99756.04
2019-04-01T02:41:04.584Z,99755.47
2019-04-01T02:43:34.122Z,99749.09
2019-04-01T02:46:03.691Z,99753.92
2019-04-01T02:48:33.216Z,99754.28
2019-04-01T02:51:02.759Z,99749.05
2019-04-01T02:53:32.346Z,99753.31
2019-04-01T02:56:01.997Z,99752.95
2019-04-01T02:58:31.519Z,99759.92
2019-04-01T03:01:01.186Z,99764.81
2019-04-01T03:03:30.718Z,99756.96
2019-04-01T03:06:00.257Z,99756.61
2019-04-01T03:08:29.838Z,99759.13
2019-04-01T03:10:59.390Z,99762.14
2019-04-01T03:13:28.918Z,99764.94
2019-04-01T03:15:58.493Z,99768.40
2019-04-01T03:18:28.060Z,99767.55
2019-04-01T03:20:57.624Z,99771.06
2019-04-01T03:23:27.258Z,99766.72
2019-04-01T03:25:57.036Z,99766.01
2019-04-01T03:28:26.685Z,99767.26
2019-04-01T03:30:56.296Z,99772.17
2019-04-01T03:33:25.959Z,99770.14
2019-04-01T03:35:55.493Z,99780.56
2019-04-01T03:38:27.918Z,99785.70
2019-04-01T03:40:56.334Z,99800.45
2019-04-01T03:43:25.914Z,99799.33
2019-04-01T03:45:55.465Z,99802.36
2019-04-01T03:48:25.107Z,99806.29
2019-04-01T03:50:54.793Z,99806.20
2019-04-01T03:53:24.468Z,99808.44
2019-04-01T03:55:54.091Z,99809.05
2019-04-01T03:58:23.783Z,99809.31
2019-04-01T04:00:53.431Z,99812.55
2019-04-01T04:03:23.196Z,99810.80
2019-04-01T04:05:52.877Z,99806.29
2019-04-01T04:08:22.433Z,99810.34
2019-04-01T04:10:51.984Z,99820.45
2019-04-01T04:13:21.516Z,99817.50
2019-04-01T04:15:51.162Z,99821.94
2019-04-01T04:18:20.699Z,99825.76
2019-04-01T04:20:50.265Z,99825.08
2019-04-01T04:23:19.821Z,99822.70
2019-04-01T04:25:50.488Z,99825.64
2019-04-01T04:28:20.193Z,99824.98
2019-04-01T04:30:49.767Z,99828.81
2019-04-01T04:33:19.297Z,99824.43
2019-04-01T04:35:48.859Z,99829.62
2019-04-01T04:38:18.406Z,99832.55
2019-04-01T04:40:47.974Z,99837.28
2019-04-01T04:43:17.633Z,99840.76
2019-04-01T04:45:47.199Z,99837.69
2019-04-01T04:48:16.855Z,99842.33
2019-04-01T04:50:46.401Z,99843.83
2019-04-01T04:53:15.965Z,99852.19
2019-04-01T04:55:45.611Z,99863.70
2019-04-01T04:58:15.353Z,99860.16
2019-04-01T05:00:45.009Z,99861.88
2019-04-01T05:03:14.549Z,99856.97
2019-04-01T05:05:44.157Z,99863.05
2019-04-01T05:08:13.819Z,99864.41
2019-04-01T05:10:43.469Z,99862.60
2019-04-01T05:13:13.035Z,99867.97
2019-04-01T05:15:42.817Z,99873.27
2019-04-01T05:18:12.484Z,99867.76
2019-04-01T05:20:42.220Z,99868.28
2019-04-01T05:23:12.083Z,99868.89
2019-04-01T05:25:41.732Z,99870.66
2019-04-01T05:28:11.494Z,99860.59
2019-04-01T05:30:41.135Z,99863.19
2019-04-01T05:33:10.821Z,99859.38
2019-04-01T05:35:40.566Z,99859.06
2019-04-01T05:38:10.270Z,99856.61
2019-04-01T05:40:40.047Z,99848.41
2019-04-01T05:43:09.608Z,99851.84
2019-04-01T05:45:39.258Z,99859.06
2019-04-01T05:48:09.414Z,99856.36
2019-04-01T05:50:39.091Z,99862.24
2019-04-01T05:53:08.721Z,99869.17
2019-04-01T05:55:38.520Z,99876.55
2019-04-01T05:58:08.393Z,99878.93
2019-04-01T06:00:42.357Z,99875.98
2019-04-01T06:03:12.245Z,99871.36
2019-04-01T06:05:41.902Z,99868.68
2019-04-01T06:08:11.443Z,99870.78
2019-04-01T06:10:41.109Z,99866.78
2019-04-01T06:13:10.639Z,99870.38
2019-04-01T06:15:40.209Z,99871.06
2019-04-01T06:18:09.790Z,99873.11
2019-04-01T06:20:39.442Z,99877.47
2019-04-01T06:23:09.003Z,99881.92
2019-04-01T06:25:38.593Z,99881.19
2019-04-01T06:28:08.224Z,99876.73
2019-04-01T06:30:37.864Z,99874.41
2019-04-01T06:33:07.412Z,99872.61
2019-04-01T06:35:36.963Z,99877.27
2019-04-01T06:38:06.649Z,99887.11
2019-04-01T06:40:36.259Z,99889.80
2019-04-01T06:43:05.866Z,99890.08
2019-04-01T06:45:35.512Z,99884.91
2019-04-01T06:48:05.176Z,99883.23
2019-04-01T06:50:35.004Z,99878.28
2019-04-01T06:53:04.706Z,99886.23
2019-04-01T06:55:34.317Z,99891.18
2019-04-01T06:58:03.937Z,99886.34
2019-04-01T07:00:33.483Z,99886.48
2019-04-01T07:03:03.172Z,99885.39
2019-04-01T07:05:36.944Z,99877.02
2019-04-01T07:08:06.516Z,99882.50
2019-04-01T07:10:36.063Z,99883.83
2019-04-01T07:13:05.706Z,99883.42
2019-04-01T07:15:35.325Z,99887.05
2019-04-01T07:18:05.032Z,99888.17
2019-04-01T07:20:34.690Z,99884.16
2019-04-01T07:23:04.326Z,99886.68
2019-04-01T07:25:34.382Z,99884.56
2019-04-01T07:28:04.060Z,99886.84
2019-04-01T07:30:33.645Z,99883.05
2019-04-01T07:33:03.254Z,99887.63
2019-04-01T07:35:32.841Z,99882.97
2019-04-01T07:38:02.422Z,99885.64
2019-04-01T07:40:31.971Z,99883.45
2019-04-01T07:43:01.607Z,99886.16
2019-04-01T07:45:31.246Z,99883.36
2019-04-01T07:48:00.855Z,99884.74
2019-04-01T07:50:30.432Z,99882.33
2019-04-01T07:53:00.040Z,99886.25
2019-04-01T07:55:29.795Z,99876.43
2019-04-01T07:57:59.906Z,99882.92
2019-04-01T08:00:29.641Z,99884.38
2019-04-01T08:02:59.271Z,99879.20
2019-04-01T08:05:28.832Z,99876.73
2019-04-01T08:07:58.433Z,99873.41
2019-04-01T08:10:27.968Z,99871.56
2019-04-01T08:12:57.524Z,99877.01
2019-04-01T08:15:27.094Z,99875.42
2019-04-01T08:17:56.638Z,99879.66
2019-04-01T08:20:26.257Z,99868.75
2019-04-01T08:22:55.818Z,99873.63
2019-04-01T08:25:25.370Z,99871.47
2019-04-01T08:27:54.978Z,99865.58
2019-04-01T08:30:24.583Z,99872.47
2019-04-01T08:32:54.271Z,99869.20
2019-04-01T08:35:23.875Z,99867.23
2019-04-01T08:37:53.629Z,99863.28
2019-04-01T08:40:23.233Z,99858.83
2019-04-01T08:42:52.894Z,99859.09
2019-04-01T08:45:22.486Z,99852.02
2019-04-01T08:47:52.021Z,99855.70
2019-04-01T08:50:21.590Z,99847.50
2019-04-01T08:52:51.182Z,99855.49
2019-04-01T08:55:20.735Z,99849.52
2019-04-01T08:57:50.262Z,99852.17
2019-04-01T09:00:19.839Z,99852.03
2019-04-01T09:02:49.468Z,99851.03
2019-04-01T09:05:19.026Z,99847.75
2019-04-01T09:07:48.587Z,99840.60
2019-04-01T09:10:18.174Z,99846.37
2019-04-01T09:12:47.733Z,99844.33
2019-04-01T09:17:45.607Z,99842.98
2019-04-01T09:20:15.173Z,99836.94
2019-04-01T09:22:44.913Z,99835.42
2019-04-01T09:25:14.467Z,99836.17
2019-04-01T09:27:44.011Z,99837.10
2019-04-01T09:30:13.721Z,99822.95
2019-04-01T09:32:43.297Z,99817.09
2019-04-01T09:35:12.859Z,99822.17
2019-04-01T09:37:42.433Z,99825.46
2019-04-01T09:40:12.408Z,99814.67
2019-04-01T09:42:42.073Z,99818.18
2019-04-01T09:45:11.640Z,99806.50
2019-04-01T09:47:41.383Z,99813.20
2019-04-01T09:50:10.926Z,99811.55
2019-04-01T09:52:40.799Z,99805.92
2019-04-01T09:55:10.376Z,99815.28
2019-04-01T09:57:40.040Z,99809.73
2019-04-01T10:00:11.811Z,99809.55
2019-04-01T10:02:41.343Z,99805.81
2019-04-01T10:05:11.054Z,99800.23
2019-04-01T10:07:40.869Z,99796.72
2019-04-01T10:10:11.252Z,99801.98
2019-04-01T10:12:40.815Z,99788.69
2019-04-01T10:15:10.447Z,99789.88
2019-04-01T10:17:40.018Z,99792.73
2019-04-01T10:20:10.068Z,99792.03
2019-04-01T10:22:39.638Z,99781.83
2019-04-01T10:25:09.401Z,99779.16
2019-04-01T10:27:39.058Z,99787.55
2019-04-01T10:30:09.075Z,99784.91
2019-04-01T10:32:38.618Z,99774.55
2019-04-01T10:35:08.199Z,99775.64
2019-04-01T10:37:38.031Z,99777.05
2019-04-01T10:40:07.825Z,99779.52
2019-04-01T10:42:37.459Z,99768.52
2019-04-01T10:45:07.696Z,99764.63
2019-04-01T10:47:37.432Z,99764.09
2019-04-01T10:50:07.233Z,99752.84
2019-04-01T10:52:36.902Z,99758.33
2019-04-01T10:55:07.056Z,99761.35
2019-04-01T10:57:36.691Z,99766.88
2019-04-01T11:00:07.481Z,99763.61
2019-04-01T11:02:37.069Z,99760.59
2019-04-01T11:05:07.070Z,99750.92
2019-04-01T11:07:36.605Z,99749.83
2019-04-01T11:10:06.652Z,99749.56
2019-04-01T11:12:36.208Z,99744.08
2019-04-01T11:15:06.063Z,99740.99
2019-04-01T11:17:35.588Z,99736.84
2019-04-01T11:20:05.391Z,99726.07
2019-04-01T11:22:34.947Z,99733.02
2019-04-01T11:25:04.892Z,99738.55
2019-04-01T11:27:34.534Z,99734.53
2019-04-01T11:30:04.194Z,99730.19
2019-04-01T11:32:33.794Z,99731.32
2019-04-01T11:35:03.461Z,99732.66
2019-04-01T11:37:33.017Z,99722.73
2019-04-01T11:40:02.617Z,99722.58
2019-04-01T11:42:32.128Z,99728.26
2019-04-01T11:45:05.516Z,99723.47
2019-04-01T11:47:32.961Z,99723.37
2019-04-01T11:50:02.675Z,99723.02
2019-04-01T11:52:32.304Z,99714.45
2019-04-01T11:55:01.864Z,99714.53
2019-04-01T11:57:31.547Z,99719.83
2019-04-01T12:00:01.219Z,99711.52
2019-04-01T12:02:30.770Z,99710.31
2019-04-01T12:05:00.544Z,99715.39
2019-04-01T12:07:30.118Z,99708.09
2019-04-01T12:09:59.688Z,99704.88
2019-04-01T12:12:29.231Z,99707.07
2019-04-01T12:14:58.769Z,99705.38
2019-04-01T12:17:28.286Z,99693.52
2019-04-01T12:19:57.851Z,99686.61
2019-04-01T12:22:27.389Z,99682.06
2019-04-01T12:24:56.952Z,99682.06
2019-04-01T12:27:26.491Z,99682.95
2019-04-01T12:29:56.045Z,99683.86
2019-04-01T12:32:25.584Z,99680.34
2019-04-01T12:34:55.138Z,99677.97
2019-04-01T12:37:24.698Z,99677.64
2019-04-01T12:39:54.271Z,99666.08
2019-04-01T12:42:23.844Z,99657.28
2019-04-01T12:44:53.405Z,99658.23
2019-04-01T12:47:22.990Z,99661.70
2019-04-01T12:49:52.511Z,99658.50
2019-04-01T12:52:22.130Z,99656.31
2019-04-01T12:54:51.681Z,99651.30
2019-04-01T12:57:21.376Z,99638.58
2019-04-01T12:59:50.901Z,99641.45
2019-04-01T13:02:20.656Z,99642.54
2019-04-01T13:04:51.514Z,99641.69
2019-04-01T13:07:21.319Z,99640.45
2019-04-01T13:09:51.656Z,99637.25
2019-04-01T13:12:21.391Z,99632.23
2019-04-01T13:14:50.936Z,99628.92
2019-04-01T13:17:21.126Z,99636.05
2019-04-01T13:19:50.934Z,99635.84
2019-04-01T13:22:20.464Z,99637.15
2019-04-01T13:24:50.015Z,99638.36
2019-04-01T13:27:19.600Z,99641.38
2019-04-01T13:29:49.147Z,99641.64
2019-04-01T13:32:20.146Z,99640.20
2019-04-01T13:34:49.830Z,99640.71
2019-04-01T13:37:19.438Z,99637.36
2019-04-01T13:39:48.992Z,99644.10
2019-04-01T13:42:18.544Z,99628.75
2019-04-01T13:44:48.169Z,99635.28
2019-04-01T13:47:17.705Z,99634.45
2019-04-01T13:49:47.238Z,99640.17
2019-04-01T13:52:16.797Z,99638.41
2019-04-01T13:54:46.361Z,99638.66
2019-04-01T13:59:49.353Z,99634.55
2019-04-01T14:02:15.489Z,99630.81
2019-04-01T14:04:45.058Z,99631.02
2019-04-01T14:07:14.621Z,99631.81
2019-04-01T14:09:44.157Z,99634.01
2019-04-01T14:12:13.769Z,99624.55
2019-04-01T14:14:43.407Z,99629.39
2019-04-01T14:17:12.955Z,99622.17
2019-04-01T14:19:42.764Z,99634.23
2019-04-01T14:22:12.334Z,99630.63
2019-04-01T14:24:42.781Z,99626.70
2019-04-01T14:27:12.743Z,99625.11
2019-04-01T14:29:42.346Z,99627.39
2019-04-01T14:32:12.060Z,99626.48
2019-04-01T14:34:41.685Z,99630.16
2019-04-01T14:37:12.408Z,99636.27
2019-04-01T14:39:42.073Z,99630.84
2019-04-01T14:42:11.645Z,99638.95
2019-04-01T14:44:41.341Z,99639.67
2019-04-01T14:47:10.934Z,99629.23
2019-04-01T14:49:42.171Z,99632.16
2019-04-01T14:52:12.962Z,99626.58
2019-04-01T14:54:42.520Z,99627.70
2019-04-01T14:57:12.221Z,99624.97
2019-04-01T14:59:41.839Z,99626.63
2019-04-01T15:02:11.497Z,99622.88
2019-04-01T15:04:41.243Z,99625.71
2019-04-01T15:07:10.977Z,99623.47
2019-04-01T15:09:40.555Z,99624.88
2019-04-01T15:12:10.336Z,99624.63
2019-04-01T15:14:40.481Z,99627.56
2019-04-01T15:17:10.164Z,99624.59
2019-04-01T15:19:39.739Z,99628.99
2019-04-01T15:22:09.546Z,99627.38
2019-04-01T15:24:39.194Z,99628.20
2019-04-01T15:27:08.980Z,99621.21
2019-04-01T15:29:38.739Z,99622.53
2019-04-01T15:32:08.358Z,99618.63
2019-04-01T15:34:37.953Z,99622.66
2019-04-01T15:37:07.518Z,99622.27
2019-04-01T15:39:37.117Z,99624.59
2019-04-01T15:42:06.767Z,99623.94
2019-04-01T15:44:37.940Z,99627.55
2019-04-01T15:47:08.663Z,99625.39
2019-04-01T15:49:38.449Z,99622.77
2019-04-01T15:52:09.001Z,99622.30
2019-04-01T15:54:38.602Z,99629.81
2019-04-01T15:57:08.127Z,99624.34
2019-04-01T15:59:37.677Z,99622.00
2019-04-01T16:02:07.323Z,99624.00
2019-04-01T16:04:37.164Z,99627.64
2019-04-01T16:07:07.078Z,99625.56
2019-04-01T16:09:36.687Z,99629.23
2019-04-01T16:12:06.219Z,99621.41
2019-04-01T16:14:35.917Z,99627.47
2019-04-01T16:17:05.692Z,99628.91
2019-04-01T16:19:35.237Z,99632.17
2019-04-01T16:22:04.757Z,99636.19
2019-04-01T16:24:34.276Z,99639.99
2019-04-01T16:27:03.921Z,99636.52
2019-04-01T16:29:33.538Z,99642.47
2019-04-01T16:32:03.226Z,99642.66
2019-04-01T16:34:32.786Z,99642.28
2019-04-01T16:37:02.423Z,99648.20
2019-04-01T16:39:32.144Z,99646.12
2019-04-01T16:42:01.782Z,99656.41
2019-04-01T16:44:31.300Z,99654.19
2019-04-01T16:47:00.847Z,99650.55
2019-04-01T16:49:30.386Z,99645.12
2019-04-01T16:52:00.362Z,99651.00
2019-04-01T16:54:30.174Z,99647.90
2019-04-01T16:56:59.717Z,99651.00
2019-04-01T16:59:29.248Z,99655.89
2019-04-01T17:01:58.778Z,99651.31
2019-04-01T17:04:28.305Z,99662.19
2019-04-01T17:06:57.883Z,99666.51
2019-04-01T17:09:27.486Z,99656.27
2019-04-01T17:11:57.089Z,99670.77
2019-04-01T17:14:26.667Z,99668.91
2019-04-01T17:16:56.563Z,99671.09
2019-04-01T17:19:27.850Z,99675.42
2019-04-01T17:21:57.483Z,99675.26
2019-04-01T17:24:28.082Z,99676.16
2019-04-01T17:27:05.199Z,99676.62
2019-04-01T17:29:34.843Z,99678.95
2019-04-01T17:32:04.599Z,99689.15
2019-04-01T17:34:34.173Z,99693.75
2019-04-01T17:37:04.276Z,99696.13
2019-04-01T17:39:34.278Z,99698.49
2019-04-01T17:42:04.269Z,99709.67
2019-04-01T17:44:33.828Z,99710.30
2019-04-01T17:47:03.415Z,99710.25
2019-04-01T17:49:33.078Z,99713.66
2019-04-01T17:52:04.298Z,99716.94
2019-04-01T17:54:34.155Z,99721.37
2019-04-01T17:57:03.737Z,99720.19
2019-04-01T17:59:33.228Z,99727.51
2019-04-01T18:02:02.886Z,99733.47
2019-04-01T18:04:32.467Z,99735.30
2019-04-01T18:07:01.999Z,99737.13
2019-04-01T18:09:31.557Z,99734.95
2019-04-01T18:12:01.190Z,99751.52
2019-04-01T18:14:31.613Z,99754.83
2019-04-01T18:17:01.205Z,99751.48
2019-04-01T18:19:30.738Z,99757.39
2019-04-01T18:22:00.522Z,99751.16
2019-04-01T18:24:30.395Z,99767.48
2019-04-01T18:27:01.462Z,99769.16
2019-04-01T18:29:31.147Z,99778.44
2019-04-01T18:32:02.197Z,99774.94
2019-04-01T18:34:32.030Z,99774.94
2019-04-01T18:37:01.633Z,99782.22
2019-04-01T18:39:31.718Z,99787.70
2019-04-01T18:42:02.894Z,99789.05
2019-04-01T18:44:32.773Z,99788.91
2019-04-01T18:47:03.953Z,99787.27
2019-04-01T18:49:33.797Z,99792.95
2019-04-01T18:52:03.379Z,99798.34
2019-04-01T18:54:34.101Z,99798.05
2019-04-01T18:57:04.023Z,99798.61
2019-04-01T18:59:33.572Z,99798.15
2019-04-01T19:02:03.213Z,99802.27
2019-04-01T19:04:34.271Z,99805.02
2019-04-01T19:07:04.472Z,99811.17
2019-04-01T19:09:36.086Z,99813.73
2019-04-01T19:12:06.868Z,99817.27
2019-04-01T19:14:36.841Z,99814.94
2019-04-01T19:17:07.005Z,99822.45
2019-04-01T19:19:39.927Z,99827.25
2019-04-01T19:22:08.781Z,99834.11
2019-04-01T19:24:38.445Z,99837.20
2019-04-01T19:27:08.039Z,99839.67
2019-04-01T19:29:37.618Z,99830.64
2019-04-01T19:32:07.127Z,99834.72
2019-04-01T19:34:38.618Z,99835.83
2019-04-01T19:37:11.387Z,99837.72
2019-04-01T19:39:40.963Z,99827.63
2019-04-01T19:42:10.566Z,99833.53
2019-04-01T19:44:40.696Z,99829.84
2019-04-01T19:47:10.236Z,99829.38
2019-04-01T19:49:39.855Z,99831.85
2019-04-01T19:52:09.878Z,99828.73
2019-04-01T19:54:39.932Z,99834.53
2019-04-01T19:57:11.939Z,99842.43
2019-04-01T19:59:41.481Z,99849.09
2019-04-01T20:02:11.374Z,99851.69
2019-04-01T20:04:40.947Z,99858.13
2019-04-01T20:07:10.501Z,99858.82
2019-04-01T20:09:40.445Z,99858.86
2019-04-01T20:12:10.011Z,99859.61
2019-04-01T20:14:40.171Z,99858.15
2019-04-01T20:17:10.496Z,99866.50
2019-04-01T20:19:40.072Z,99867.52
2019-04-01T20:22:09.624Z,99869.41
2019-04-01T20:24:39.174Z,99870.75
2019-04-01T20:27:08.723Z,99873.31
2019-04-01T20:29:39.240Z,99875.22
2019-04-01T20:32:17.251Z,99880.61
2019-04-01T20:34:40.803Z,99882.36
2019-04-01T20:37:10.338Z,99896.50
2019-04-01T20:39:39.872Z,99905.48
2019-04-01T20:42:09.477Z,99915.48
2019-04-01T20:44:39.002Z,99914.50
2019-04-01T20:47:08.568Z,99921.66
2019-04-01T20:49:38.102Z,99929.64
2019-04-01T20:52:07.627Z,99933.55
2019-04-01T20:54:37.257Z,99936.08
2019-04-01T20:57:06.790Z,99938.94
2019-04-01T20:59:36.351Z,99949.86
2019-04-01T21:02:05.902Z,99952.77
2019-04-01T21:04:35.432Z,99961.84
2019-04-01T21:07:04.954Z,99955.97
2019-04-01T21:09:34.603Z,99961.40
2019-04-01T21:12:04.167Z,99959.95
2019-04-01T21:14:33.698Z,99962.04
2019-04-01T21:17:03.213Z,99970.31
2019-04-01T21:19:32.746Z,99967.03
2019-04-01T21:22:02.281Z,99972.64
2019-04-01T21:24:31.818Z,99976.00
2019-04-01T21:27:01.337Z,99980.38
2019-04-01T21:29:30.860Z,99984.30
2019-04-01T21:32:01.329Z,99985.55
2019-04-01T21:34:30.936Z,99988.15
2019-04-01T21:37:03.222Z,99988.84
2019-04-01T21:39:31.731Z,99989.52
2019-04-01T21:42:01.264Z,99989.52
2019-04-01T21:44:30.817Z,99989.07
2019-04-01T21:47:00.360Z,99997.33
2019-04-01T21:49:29.894Z,100002.05
2019-04-01T21:52:01.934Z,100010.97
2019-04-01T21:54:30.659Z,100013.89
2019-04-01T21:57:00.196Z,100015.52
2019-04-01T21:59:29.726Z,100018.05
2019-04-01T22:01:59.493Z,100016.51
2019-04-01T22:04:29.201Z,100027.69
2019-04-01T22:06:58.739Z,100034.77
2019-04-01T22:09:28.274Z,100037.31
2019-04-01T22:11:58.164Z,100046.96
2019-04-01T22:14:28.044Z,100059.23
2019-04-01T22:16:57.685Z,100057.56
2019-04-01T22:19:27.303Z,100064.19
2019-04-01T22:21:56.850Z,100066.55
2019-04-01T22:24:26.481Z,100062.50
2019-04-01T22:26:56.491Z,100068.86
2019-04-01T22:29:26.002Z,100060.66
2019-04-01T22:31:55.706Z,100069.56
2019-04-01T22:34:25.376Z,100071.59
2019-04-01T22:36:54.886Z,100063.87
2019-04-01T22:39:27.326Z,100068.30
2019-04-01T22:41:55.674Z,100070.32
2019-04-01T22:44:25.219Z,100069.83
2019-04-01T22:46:54.783Z,100076.11
2019-04-01T22:49:24.314Z,100079.12
2019-04-01T22:51:53.828Z,100082.55
2019-04-01T22:54:23.347Z,100089.94
2019-04-01T22:56:52.893Z,100094.95
2019-04-01T22:59:22.407Z,100104.70
2019-04-01T23:01:51.929Z,100095.67
2019-04-01T23:04:21.536Z,100098.73
2019-04-01T23:06:51.133Z,100101.06
2019-04-01T23:09:20.709Z,100100.72
2019-04-01T23:11:50.283Z,100102.78
2019-04-01T23:14:19.817Z,100108.00
2019-04-01T23:16:49.359Z,100106.02
2019-04-01T23:19:19.004Z,100115.64
2019-04-01T23:21:48.554Z,100117.33
2019-04-01T23:24:18.079Z,100127.45
2019-04-01T23:26:47.625Z,100125.30
2019-04-01T23:29:17.189Z,100124.78
2019-04-01T23:31:47.208Z,100124.81
2019-04-01T23:34:17.024Z,100123.47
2019-04-01T23:36:46.566Z,100119.13
2019-04-01T23:39:16.073Z,100131.56
2019-04-01T23:41:45.682Z,100134.60
2019-04-01T23:44:15.222Z,100135.61
2019-04-01T23:46:44.737Z,100135.95
2019-04-01T23:49:14.277Z,100131.55
2019-04-01T23:51:43.790Z,100142.98
2019-04-01T23:54:13.342Z,100141.97
2019-04-01T23:56:42.878Z,100149.04
2019-04-01T23:59:12.426Z,100145.50
